Stations météo

réclame
Mon MeteoGroup
Chillingham Barns, Grande-Bretagne (99196): Température de l'air & dewpoint: 12.06.2018 12:00:00 - 18.06.2018 12:00:00 (BST)Chillingham Barns, Grande-Bretagne (99196): Quantités de précipitations: 12.06.2018 12:00:00 - 18.06.2018 12:00:00 (BST)
Date & Time tt [°C] td [°C] rr [mm]
18.06.2018 12:00:00 - - 0,0
18.06.2018 11:00:00 14,0 7,4 0,0
18.06.2018 10:00:00 14,2 7,9 0,0
18.06.2018 09:00:00 13,3 7,1 0,0
18.06.2018 08:00:00 12,6 7,5 0,0
18.06.2018 07:00:00 12,3 8,0 0,0
18.06.2018 06:00:00 12,1 8,3 0,0
18.06.2018 05:00:00 12,2 9,3 0,0
18.06.2018 04:00:00 12,9 10,5 0,0
18.06.2018 03:00:00 13,5 11,0 0,0
18.06.2018 02:00:00 14,1 11,0 0,0
18.06.2018 01:00:00 14,6 11,8 0,0
18.06.2018 00:00:00 14,9 12,7 0,0
17.06.2018 23:00:00 14,4 12,7 0,0
17.06.2018 22:00:00 14,6 12,2 0,0
17.06.2018 21:00:00 14,7 11,9 0,0
17.06.2018 20:00:00 14,2 11,7 0,0
17.06.2018 19:00:00 15,0 11,0 0,0
17.06.2018 18:00:00 15,8 10,3 0,0
17.06.2018 17:00:00 15,4 9,7 0,0
17.06.2018 16:00:00 15,9 9,6 0,0
17.06.2018 15:00:00 16,9 9,3 0,0
17.06.2018 14:00:00 17,7 10,1 0,0
17.06.2018 13:00:00 16,0 9,2 0,0
17.06.2018 12:00:00 15,1 8,4 0,0
17.06.2018 11:00:00 15,6 8,8 0,0
17.06.2018 10:00:00 14,6 9,5 0,0
17.06.2018 09:00:00 13,9 8,9 0,0
17.06.2018 08:00:00 13,7 8,5 0,0
17.06.2018 07:00:00 10,7 6,9 0,0
17.06.2018 06:00:00 8,5 6,0 0,0
17.06.2018 05:00:00 6,8 4,4 0,0
17.06.2018 04:00:00 8,4 5,8 0,0
17.06.2018 03:00:00 7,9 5,6 0,0
17.06.2018 02:00:00 8,3 5,8 0,0
17.06.2018 01:00:00 9,1 6,1 0,0
17.06.2018 00:00:00 8,6 5,9 0,0
16.06.2018 23:00:00 8,6 6,0 0,0
16.06.2018 22:00:00 9,5 6,4 0,0
16.06.2018 21:00:00 11,7 8,6 0,0
16.06.2018 20:00:00 12,6 9,0 0,0
16.06.2018 19:00:00 12,0 9,0 0,0
16.06.2018 18:00:00 12,8 10,7 0,0
16.06.2018 17:00:00 11,2 10,0 6,8
16.06.2018 16:00:00 13,5 11,0 0,0
16.06.2018 15:00:00 13,7 11,3 0,0
16.06.2018 14:00:00 15,1 8,8 0,0
16.06.2018 13:00:00 14,8 8,0 0,0
16.06.2018 12:00:00 14,3 8,0 0,0
16.06.2018 11:00:00 14,2 7,8 0,0
16.06.2018 10:00:00 13,9 7,9 0,0
16.06.2018 09:00:00 12,4 8,0 0,0
16.06.2018 08:00:00 11,3 7,3 0,0
16.06.2018 07:00:00 10,4 7,1 0,0
16.06.2018 06:00:00 9,8 6,7 0,0
16.06.2018 05:00:00 8,8 6,3 0,0
16.06.2018 04:00:00 8,7 6,3 0,0
16.06.2018 03:00:00 8,6 6,4 0,0
16.06.2018 02:00:00 9,1 6,6 0,0
16.06.2018 01:00:00 9,9 6,8 0,0
16.06.2018 00:00:00 10,7 7,0 0,0
15.06.2018 23:00:00 10,4 6,8 0,0
15.06.2018 22:00:00 11,3 6,9 0,0
15.06.2018 21:00:00 12,6 6,6 0,0
15.06.2018 20:00:00 14,0 6,4 0,0
15.06.2018 19:00:00 15,4 6,3 0,0
15.06.2018 18:00:00 15,5 6,5 0,0
15.06.2018 17:00:00 15,1 7,1 0,0
15.06.2018 16:00:00 15,7 6,6 0,0
15.06.2018 15:00:00 15,3 6,3 0,0
15.06.2018 14:00:00 14,9 7,0 0,0
15.06.2018 13:00:00 14,1 6,8 0,0
15.06.2018 12:00:00 13,8 5,9 0,0
15.06.2018 11:00:00 13,2 6,1 0,0
15.06.2018 10:00:00 12,7 6,1 0,0
15.06.2018 09:00:00 12,7 6,4 0,0
15.06.2018 08:00:00 11,7 6,0 0,0
15.06.2018 07:00:00 11,4 6,7 0,0
15.06.2018 06:00:00 10,7 7,8 0,0
15.06.2018 05:00:00 10,1 8,2 0,0
15.06.2018 04:00:00 9,7 8,0 0,0
15.06.2018 03:00:00 8,8 7,1 0,0
15.06.2018 02:00:00 8,8 6,7 0,0
15.06.2018 01:00:00 10,2 6,3 0,0
15.06.2018 00:00:00 11,1 6,0 0,0
14.06.2018 23:00:00 10,3 5,4 0,0
14.06.2018 22:00:00 11,5 5,7 0,0
14.06.2018 21:00:00 12,7 5,6 0,0
14.06.2018 20:00:00 13,9 5,1 0,0
14.06.2018 19:00:00 15,3 5,0 0,0
14.06.2018 18:00:00 15,8 5,5 0,0
14.06.2018 17:00:00 16,7 5,2 0,0
14.06.2018 16:00:00 17,3 6,2 0,0
14.06.2018 15:00:00 16,4 7,3 0,0
14.06.2018 14:00:00 16,7 6,9 0,0
14.06.2018 13:00:00 14,4 8,5 0,0
14.06.2018 12:00:00 14,7 8,7 0,0
14.06.2018 11:00:00 16,6 9,3 0,0
14.06.2018 10:00:00 15,5 10,0 0,0
14.06.2018 09:00:00 15,2 9,7 0,0
14.06.2018 08:00:00 16,4 11,6 0,0
14.06.2018 07:00:00 15,6 12,5 0,0
14.06.2018 06:00:00 14,9 12,2 0,0
14.06.2018 05:00:00 15,2 12,0 0,0
14.06.2018 04:00:00 15,0 11,6 0,0
14.06.2018 03:00:00 14,7 11,6 0,0
14.06.2018 02:00:00 14,5 11,5 0,0
14.06.2018 01:00:00 14,7 11,0 0,0
14.06.2018 00:00:00 14,7 10,8 0,2
13.06.2018 23:00:00 14,4 10,6 0,0
13.06.2018 22:00:00 14,4 10,4 0,2
13.06.2018 21:00:00 14,6 9,7 0,0
13.06.2018 20:00:00 15,5 10,1 0,0
13.06.2018 19:00:00 15,7 10,7 0,0
13.06.2018 18:00:00 16,0 10,0 0,0
13.06.2018 17:00:00 15,4 10,1 0,0
13.06.2018 16:00:00 16,1 9,6 0,0
13.06.2018 15:00:00 17,4 9,8 0,0
13.06.2018 14:00:00 16,5 8,5 0,0
13.06.2018 13:00:00 16,5 8,1 0,0
13.06.2018 12:00:00 17,5 8,5 0,0
13.06.2018 11:00:00 16,6 8,8 0,0
13.06.2018 10:00:00 15,6 7,6 0,0
13.06.2018 09:00:00 13,9 7,7 0,0
13.06.2018 08:00:00 11,5 11,0 0,0
13.06.2018 07:00:00 9,6 9,4 0,0
13.06.2018 06:00:00 9,3 9,1 0,0
13.06.2018 05:00:00 8,5 8,1 0,0
13.06.2018 04:00:00 9,1 8,5 0,0
13.06.2018 03:00:00 10,0 9,0 0,0
13.06.2018 02:00:00 11,1 9,7 0,0
13.06.2018 01:00:00 11,5 9,6 0,0
13.06.2018 00:00:00 13,6 10,2 0,0
12.06.2018 23:00:00 13,3 9,6 0,0
12.06.2018 22:00:00 13,1 9,4 0,0
12.06.2018 21:00:00 15,0 10,1 0,0
12.06.2018 20:00:00 15,7 10,2 0,0
12.06.2018 19:00:00 16,2 10,5 0,0
12.06.2018 18:00:00 16,3 9,5 0,0
12.06.2018 17:00:00 16,0 9,5 0,0
12.06.2018 16:00:00 16,0 9,1 0,0
12.06.2018 15:00:00 16,3 8,2 0,0
12.06.2018 14:00:00 17,1 8,2 0,0
12.06.2018 13:00:00 16,5 7,3 0,0
12.06.2018 12:00:00 16,4 8,3 0,0

tt = Température de l'air
td = dewpoint
rr = Quantités de précipitations

stations d'obs. à proximité